Time;durP1;ratioP1;P1;durP2;ratioP2;P2;SDS_P1;SDS_P2;PMS_P1;PMS_P2;Temp;Humidity;BMP_temperature;BMP_pressure;BME280_temperature;BME280_humidity;BME280_pressure;Samples;Min_cycle;Max_cycle;Signal;HPM_P1;HPM_P2
2023/03/26 00:01:35;;;;;;;41.72;7.03;;;;;;;7.70;100.00;100594.34;5017805;28;20505;-57
2023/03/26 00:04:01;;;;;;;35.90;6.25;;;;;;;7.64;100.00;100593.09;5023366;28;20067;-58
2023/03/26 00:06:29;;;;;;;35.58;6.22;;;;;;;7.61;100.00;100599.50;5032910;28;20105;-58
2023/03/26 00:08:56;;;;;;;35.75;6.60;;;;;;;7.59;100.00;100596.19;5018966;28;20151;-58
2023/03/26 00:11:24;;;;;;;40.08;6.50;;;;;;;7.53;100.00;100597.63;5025938;28;20036;-59
2023/03/26 00:13:52;;;;;;;37.28;6.93;;;;;;;7.52;100.00;100595.13;5022598;28;20512;-58
2023/03/26 00:16:18;;;;;;;29.85;6.10;;;;;;;7.49;100.00;100598.03;5024996;28;20505;-58
2023/03/26 00:18:44;;;;;;;37.63;5.97;;;;;;;7.47;100.00;100592.94;5028287;28;20500;-59
2023/03/26 00:21:13;;;;;;;40.05;6.72;;;;;;;7.45;100.00;100591.41;5037849;28;20030;-59
2023/03/26 00:23:40;;;;;;;34.53;5.80;;;;;;;7.43;100.00;100588.09;5023883;28;20428;-58
2023/03/26 00:26:09;;;;;;;32.92;6.40;;;;;;;7.43;100.00;100590.72;5037691;28;20116;-58
2023/03/26 00:28:39;;;;;;;37.75;6.70;;;;;;;7.39;100.00;100588.38;5029819;28;20029;-58
2023/03/26 00:31:07;;;;;;;32.30;6.32;;;;;;;7.35;100.00;100579.09;5037045;28;20029;-57
2023/03/26 00:33:37;;;;;;;34.85;6.13;;;;;;;7.34;100.00;100582.72;5030611;28;20037;-58
2023/03/26 00:36:04;;;;;;;36.92;6.15;;;;;;;7.33;100.00;100580.22;5019838;28;20037;-58
2023/03/26 00:38:30;;;;;;;35.78;6.60;;;;;;;7.27;100.00;100577.19;5023537;28;20041;-58
2023/03/26 00:41:04;;;;;;;35.40;6.28;;;;;;;7.26;100.00;100574.72;5033479;28;20552;-58
2023/03/26 00:43:31;;;;;;;34.30;6.65;;;;;;;7.26;100.00;100569.44;5029062;28;20478;-57
2023/03/26 00:45:57;;;;;;;35.45;6.35;;;;;;;7.20;100.00;100570.03;5038360;28;20386;-58
2023/03/26 00:48:22;;;;;;;32.63;5.75;;;;;;;7.17;100.00;100560.59;5034812;28;20052;-58
2023/03/26 00:50:49;;;;;;;32.83;6.15;;;;;;;7.18;100.00;100561.41;5025791;28;21858;-58
2023/03/26 00:53:16;;;;;;;37.83;6.03;;;;;;;7.18;100.00;100561.41;5027901;28;20117;-58
2023/03/26 00:55:45;;;;;;;32.80;6.47;;;;;;;7.20;100.00;100562.13;5038255;28;20037;-58
2023/03/26 00:58:12;;;;;;;37.00;6.75;;;;;;;7.20;100.00;100557.66;5031583;28;20022;-58
2023/03/26 01:00:47;;;;;;;34.88;6.70;;;;;;;7.18;100.00;100561.41;5027313;28;20037;-58
2023/03/26 01:03:14;;;;;;;33.65;6.07;;;;;;;7.18;100.00;100556.13;5030810;28;20350;-58
2023/03/26 01:05:51;;;;;;;32.70;6.50;;;;;;;7.18;100.00;100545.59;5023178;28;20087;-59
2023/03/26 01:08:16;;;;;;;32.75;5.93;;;;;;;7.12;100.00;100537.28;5025749;28;20056;-58
2023/03/26 01:10:49;;;;;;;31.50;5.50;;;;;;;7.08;100.00;100530.66;5025529;28;20026;-57
2023/03/26 01:13:16;;;;;;;34.85;5.80;;;;;;;7.06;100.00;100531.78;5027728;28;20041;-58
2023/03/26 01:15:43;;;;;;;35.88;6.10;;;;;;;7.05;100.00;100524.84;5021058;28;20017;-58
2023/03/26 01:18:08;;;;;;;33.58;6.38;;;;;;;6.99;100.00;100520.97;5025370;28;20151;-58
2023/03/26 01:20:45;;;;;;;39.60;6.53;;;;;;;6.99;100.00;100526.25;5023355;28;20102;-57
2023/03/26 01:23:12;;;;;;;31.98;6.10;;;;;;;6.99;100.00;100513.06;5026585;28;20386;-59
2023/03/26 01:25:42;;;;;;;35.70;5.45;;;;;;;6.95;100.00;100504.63;5024622;28;20030;-58
2023/03/26 01:28:11;;;;;;;26.90;5.53;;;;;;;6.93;100.00;100506.59;5026475;28;20033;-58
2023/03/26 01:31:09;;;;;;;33.47;5.55;;;;;;;6.94;100.00;100502.13;5023863;28;20083;-59
2023/03/26 01:33:37;;;;;;;33.55;6.05;;;;;;;6.91;100.00;100497.16;5018998;28;20649;-59
2023/03/26 01:36:32;;;;;;;33.17;5.75;;;;;;;6.93;100.00;100495.19;5018128;28;20040;-59
2023/03/26 01:39:19;;;;;;;33.20;5.80;;;;;;;6.85;100.00;100488.84;5022586;28;20045;-59
2023/03/26 01:41:56;;;;;;;31.45;5.55;;;;;;;6.84;100.00;100481.94;5022592;28;20041;-59
2023/03/26 01:44:43;;;;;;;35.78;5.63;;;;;;;6.85;100.00;100491.50;5020181;28;20079;-58
2023/03/26 01:47:10;;;;;;;34.08;5.80;;;;;;;6.81;100.00;100489.31;5031362;28;20029;-58
2023/03/26 01:49:36;;;;;;;33.90;5.70;;;;;;;6.79;100.00;100489.44;5022906;28;20041;-58
2023/03/26 01:52:01;;;;;;;32.08;5.65;;;;;;;6.77;100.00;100480.84;5020540;28;20025;-59
2023/03/26 01:54:30;;;;;;;34.97;5.55;;;;;;;6.76;100.00;100484.44;5020328;28;20078;-58
2023/03/26 01:57:20;;;;;;;29.55;5.35;;;;;;;6.76;100.00;100481.00;5019268;28;20021;-58
2023/03/26 02:00:10;;;;;;;30.33;5.55;;;;;;;6.78;100.00;100471.97;5019577;28;20076;-57
2023/03/26 02:02:55;;;;;;;33.65;5.78;;;;;;;6.77;100.00;100472.09;5017898;28;20068;-58
2023/03/26 02:05:36;;;;;;;34.70;6.35;;;;;;;6.75;100.00;100461.69;5025362;28;20619;-59
2023/03/26 02:08:36;;;;;;;31.38;5.50;;;;;;;6.75;100.00;100453.78;5019495;28;20026;-58
2023/03/26 02:11:04;;;;;;;28.58;5.00;;;;;;;6.73;100.00;100453.13;5020102;28;20033;-58
2023/03/26 02:13:31;;;;;;;29.90;5.72;;;;;;;6.71;100.00;100455.09;5021964;28;20108;-59
2023/03/26 02:16:02;;;;;;;36.13;5.70;;;;;;;6.68;100.00;100445.66;5019507;28;20060;-59
2023/03/26 02:18:40;;;;;;;29.55;5.45;;;;;;;6.69;100.00;100433.28;5024169;28;20025;-58
2023/03/26 02:21:11;;;;;;;28.70;5.70;;;;;;;6.66;100.00;100431.78;5022043;28;20026;-58
2023/03/26 02:23:45;;;;;;;27.17;5.50;;;;;;;6.62;100.00;100427.81;5018608;28;20477;-57
2023/03/26 02:26:13;;;;;;;33.72;5.57;;;;;;;6.64;100.00;100432.91;5020289;28;20037;-58
2023/03/26 02:28:39;;;;;;;35.63;5.63;;;;;;;6.64;100.00;100428.47;5018548;28;20061;-58
2023/03/26 02:31:05;;;;;;;34.55;5.70;;;;;;;6.63;100.00;100432.09;5022809;28;20068;-58
2023/03/26 02:33:31;;;;;;;26.67;5.07;;;;;;;6.62;100.00;100429.59;5019629;28;20065;-58
2023/03/26 02:36:00;;;;;;;32.78;5.57;;;;;;;6.65;100.00;100424.84;5022746;28;20085;-58
2023/03/26 02:38:28;;;;;;;30.45;5.18;;;;;;;6.60;100.00;100416.56;5016418;28;20092;-58
2023/03/26 02:40:54;;;;;;;34.65;5.72;;;;;;;6.61;100.00;100418.22;5017488;28;20721;-58
2023/03/26 02:43:21;;;;;;;36.80;5.90;;;;;;;6.63;100.00;100423.34;5016294;28;20064;-58
2023/03/26 02:45:46;;;;;;;29.92;5.32;;;;;;;6.64;100.00;100417.09;5017345;28;20022;-59
2023/03/26 02:48:12;;;;;;;32.60;5.50;;;;;;;6.64;100.00;100406.56;5020100;28;20566;-58
2023/03/26 02:50:38;;;;;;;27.13;4.90;;;;;;;6.62;100.00;100403.25;5019871;28;20029;-59
2023/03/26 02:53:03;;;;;;;31.58;5.38;;;;;;;6.61;100.00;100391.06;5020355;28;20041;-58
2023/03/26 02:55:29;;;;;;;33.63;5.63;;;;;;;6.61;100.00;100385.78;5017779;28;20057;-58
2023/03/26 02:57:55;;;;;;;30.38;5.22;;;;;;;6.58;100.00;100387.72;5017925;28;20088;-58
2023/03/26 03:00:21;;;;;;;31.77;4.97;;;;;;;6.56;100.00;100387.03;5021276;28;20043;-58
2023/03/26 03:02:47;;;;;;;25.30;5.13;;;;;;;6.59;100.00;100381.50;5023196;28;20116;-58
2023/03/26 03:05:13;;;;;;;27.95;4.95;;;;;;;6.57;100.00;100374.72;5015227;28;20029;-58
2023/03/26 03:07:39;;;;;;;31.90;5.10;;;;;;;6.58;100.00;100371.91;5016670;28;20033;-58
2023/03/26 03:10:07;;;;;;;29.88;4.72;;;;;;;6.56;100.00;100363.34;5020108;28;20021;-58
2023/03/26 03:12:33;;;;;;;29.63;5.88;;;;;;;6.59;100.00;100365.69;5022532;28;20025;-58
2023/03/26 03:14:58;;;;;;;28.08;5.55;;;;;;;6.58;100.00;100356.09;5018210;28;20084;-57
2023/03/26 03:17:24;;;;;;;35.38;6.13;;;;;;;6.62;100.00;100355.81;5017333;28;20104;-58
2023/03/26 03:19:49;;;;;;;27.83;5.05;;;;;;;6.65;100.00;100355.53;5015854;28;20045;-57
2023/03/26 03:22:14;;;;;;;31.83;5.45;;;;;;;6.63;100.00;100352.22;5021706;28;20049;-58
2023/03/26 03:24:42;;;;;;;32.00;5.68;;;;;;;6.65;100.00;100350.28;5015951;28;20053;-58
2023/03/26 03:27:08;;;;;;;25.77;4.60;;;;;;;6.66;100.00;100341.38;5021639;28;20426;-58
2023/03/26 03:29:33;;;;;;;27.20;5.10;;;;;;;6.67;100.00;100343.03;5031292;28;20114;-58
2023/03/26 03:31:59;;;;;;;26.98;4.88;;;;;;;6.69;100.00;100335.81;5021085;28;20046;-58
2023/03/26 03:34:24;;;;;;;29.50;5.28;;;;;;;6.69;100.00;100341.91;5020303;28;20079;-58
2023/03/26 03:36:49;;;;;;;27.08;5.03;;;;;;;6.71;100.00;100333.88;5019670;28;20469;-59
2023/03/26 03:39:15;;;;;;;26.50;5.20;;;;;;;6.73;100.00;100332.72;5018618;28;20049;-58
2023/03/26 03:41:40;;;;;;;29.52;4.93;;;;;;;6.73;100.00;100329.28;5022719;28;20044;-60
2023/03/26 03:44:05;;;;;;;31.48;4.75;;;;;;;6.74;100.00;100330.91;5023555;28;20033;-58
2023/03/26 03:46:31;;;;;;;25.50;4.72;;;;;;;6.75;100.00;100329.13;5022845;28;20025;-58
2023/03/26 03:48:56;;;;;;;25.38;4.38;;;;;;;6.73;100.00;100326.63;5018249;28;20054;-59
2023/03/26 03:51:22;;;;;;;25.02;4.40;;;;;;;6.76;100.00;100321.06;5020573;28;20040;-58
2023/03/26 03:53:48;;;;;;;18.55;4.18;;;;;;;6.75;100.00;100324.66;5020410;28;20034;-58
2023/03/26 03:56:17;;;;;;;21.35;4.30;;;;;;;6.77;100.00;100317.47;5019140;28;20068;-58
2023/03/26 03:58:45;;;;;;;23.48;4.35;;;;;;;6.76;100.00;100318.41;5018021;28;20030;-58
2023/03/26 04:01:12;;;;;;;26.70;4.93;;;;;;;6.78;100.00;100308.56;5018318;28;20436;-58
2023/03/26 04:03:38;;;;;;;27.88;4.35;;;;;;;6.76;100.00;100307.88;5019938;28;20083;-59
2023/03/26 04:06:09;;;;;;;23.95;4.50;;;;;;;6.77;100.00;100304.28;5015503;28;20046;-59
2023/03/26 04:08:35;;;;;;;25.40;4.32;;;;;;;6.75;100.00;100298.31;5018474;28;20040;-58
2023/03/26 04:11:01;;;;;;;22.70;4.05;;;;;;;6.75;100.00;100298.31;5021760;28;20405;-58
2023/03/26 04:13:26;;;;;;;22.95;4.57;;;;;;;6.76;100.00;100284.16;5018068;28;20057;-58
2023/03/26 04:15:52;;;;;;;27.45;4.57;;;;;;;6.74;100.00;100280.84;5014135;28;20071;-57
2023/03/26 04:18:19;;;;;;;23.88;4.55;;;;;;;6.76;100.00;100268.34;5019939;28;20037;-58
2023/03/26 04:20:48;;;;;;;21.00;3.97;;;;;;;6.75;100.00;100269.31;5018169;28;20112;-58
2023/03/26 04:23:16;;;;;;;22.42;4.45;;;;;;;6.76;100.00;100257.81;5018442;28;20101;-58
2023/03/26 04:25:49;;;;;;;22.95;4.28;;;;;;;6.78;100.00;100257.66;5025471;28;20040;-58
2023/03/26 04:28:26;;;;;;;16.85;4.40;;;;;;;6.80;100.00;100253.91;5019194;28;20175;-58
2023/03/26 04:30:53;;;;;;;25.05;4.40;;;;;;;6.77;100.00;100248.94;5017920;28;20173;-58
2023/03/26 04:33:19;;;;;;;22.70;4.05;;;;;;;6.77;100.00;100243.69;5019833;28;20025;-59
2023/03/26 04:35:47;;;;;;;24.27;4.45;;;;;;;6.78;100.00;100234.78;5016495;28;20030;-58
2023/03/26 04:38:15;;;;;;;23.13;4.40;;;;;;;6.74;100.00;100236.06;5018384;28;20036;-60
2023/03/26 04:40:46;;;;;;;18.95;4.30;;;;;;;6.74;100.00;100236.06;5020529;28;20026;-59
2023/03/26 04:43:12;;;;;;;23.98;4.20;;;;;;;6.74;100.00;100233.41;5019556;28;20026;-58
2023/03/26 04:45:38;;;;;;;23.02;4.40;;;;;;;6.75;100.00;100224.53;5015468;28;20037;-59
2023/03/26 04:48:06;;;;;;;21.40;4.03;;;;;;;6.73;100.00;100222.03;5016411;28;20068;-58
2023/03/26 04:50:31;;;;;;;18.52;4.10;;;;;;;6.73;100.00;100210.69;5017049;28;20064;-57
2023/03/26 04:52:57;;;;;;;20.77;4.10;;;;;;;6.71;100.00;100207.38;5017004;28;20030;-59
2023/03/26 04:55:31;;;;;;;20.20;4.15;;;;;;;6.71;100.00;100204.75;5017914;28;20066;-58
2023/03/26 04:58:03;;;;;;;24.33;4.30;;;;;;;6.69;100.00;100201.41;5018775;28;20040;-58
2023/03/26 05:00:28;;;;;;;22.08;4.25;;;;;;;6.67;100.00;100203.38;5017607;28;20054;-59
2023/03/26 05:02:56;;;;;;;22.42;4.32;;;;;;;6.68;100.00;100197.97;5019654;28;20485;-58
2023/03/26 05:05:22;;;;;;;18.75;3.80;;;;;;;6.70;100.00;100200.44;5016224;28;20037;-58
2023/03/26 05:07:47;;;;;;;23.77;4.22;;;;;;;6.70;100.00;100192.53;5018722;28;20021;-58
2023/03/26 05:10:14;;;;;;;19.90;4.40;;;;;;;6.70;100.00;100190.72;5020674;28;20040;-59
2023/03/26 05:12:40;;;;;;;21.58;4.63;;;;;;;6.68;100.00;100184.81;5020150;28;20117;-58
2023/03/26 05:15:06;;;;;;;22.55;4.40;;;;;;;6.65;100.00;100179.00;5023715;28;20128;-58
2023/03/26 05:17:33;;;;;;;25.08;4.57;;;;;;;6.66;100.00;100178.03;5033537;28;20048;-57
2023/03/26 05:19:59;;;;;;;18.70;4.07;;;;;;;6.65;100.00;100166.66;5034693;28;20033;-58
2023/03/26 05:22:25;;;;;;;22.33;4.20;;;;;;;6.63;100.00;100165.97;5036364;28;20878;-58
2023/03/26 05:24:51;;;;;;;20.25;4.10;;;;;;;6.64;100.00;100165.00;5052421;28;20032;-58
2023/03/26 05:27:21;;;;;;;19.98;4.13;;;;;;;6.64;100.00;100164.16;5038184;28;20545;-59
2023/03/26 05:29:46;;;;;;;21.58;4.00;;;;;;;6.65;100.00;100160.56;5024322;28;20025;-58
2023/03/26 05:32:11;;;;;;;20.38;4.10;;;;;;;6.68;100.00;100157.63;5029490;28;20040;-58
2023/03/26 05:34:38;;;;;;;24.75;4.55;;;;;;;6.66;100.00;100154.31;5048632;28;20052;-58
2023/03/26 05:37:05;;;;;;;19.85;4.30;;;;;;;6.69;100.00;100154.00;5049598;28;20082;-58
2023/03/26 05:39:31;;;;;;;24.13;4.75;;;;;;;6.70;100.00;100150.38;5024621;28;20029;-58
2023/03/26 05:41:56;;;;;;;23.20;4.40;;;;;;;6.74;100.00;100143.81;5017350;28;20095;-59
2023/03/26 05:44:21;;;;;;;18.05;4.30;;;;;;;6.75;100.00;100139.41;5036322;28;20037;-58
2023/03/26 05:46:47;;;;;;;25.38;4.30;;;;;;;6.75;100.00;100134.13;5019439;28;20073;-58
2023/03/26 05:49:12;;;;;;;21.35;4.25;;;;;;;6.75;100.00;100139.41;5019729;28;20076;-58
2023/03/26 05:51:37;;;;;;;23.08;4.80;;;;;;;6.76;100.00;100136.59;5014047;28;20509;-59
2023/03/26 05:54:03;;;;;;;20.05;4.32;;;;;;;6.79;100.00;100131.03;5017587;28;20041;-58
2023/03/26 05:56:28;;;;;;;22.70;4.50;;;;;;;6.79;100.00;100133.66;5019622;28;20100;-57
2023/03/26 05:58:55;;;;;;;22.17;4.60;;;;;;;6.77;100.00;100122.44;5019491;28;20041;-58
2023/03/26 06:01:21;;;;;;;23.10;4.43;;;;;;;6.77;100.00;100122.44;5023235;28;20032;-58
2023/03/26 06:03:47;;;;;;;25.08;4.75;;;;;;;6.73;100.00;100110.56;5020182;28;20029;-57
2023/03/26 06:06:15;;;;;;;21.50;4.70;;;;;;;6.67;100.00;100106.72;5018081;28;20112;-57
2023/03/26 06:08:47;;;;;;;21.92;4.35;;;;;;;6.63;100.00;100099.28;5020581;28;20516;-58
2023/03/26 06:11:14;;;;;;;21.03;4.27;;;;;;;6.63;100.00;100109.81;5019628;28;20030;-58
2023/03/26 06:13:40;;;;;;;18.50;4.70;;;;;;;6.63;100.00;100104.53;5019124;28;20288;-58
2023/03/26 06:16:06;;;;;;;20.67;5.05;;;;;;;6.66;100.00;100098.97;5015948;28;20362;-58
2023/03/26 06:18:31;;;;;;;19.55;4.43;;;;;;;6.66;100.00;100085.81;5020715;28;20057;-58
2023/03/26 06:20:57;;;;;;;24.73;5.10;;;;;;;6.67;100.00;100095.38;5018137;28;20036;-58
2023/03/26 06:23:22;;;;;;;20.60;4.53;;;;;;;6.64;100.00;100082.47;5019344;28;20025;-58
2023/03/26 06:25:48;;;;;;;19.92;5.03;;;;;;;6.68;100.00;100089.09;5017906;28;20024;-58
2023/03/26 06:28:14;;;;;;;26.23;5.05;;;;;;;6.67;100.00;100088.28;5017585;28;20037;-59
2023/03/26 06:30:40;;;;;;;23.73;4.90;;;;;;;6.70;100.00;100092.41;5020182;28;20028;-58
2023/03/26 06:33:05;;;;;;;24.92;5.43;;;;;;;6.72;100.00;100082.56;5019349;28;20720;-58
2023/03/26 06:35:31;;;;;;;19.50;4.70;;;;;;;6.76;100.00;100089.16;5028878;28;20030;-57
2023/03/26 06:37:57;;;;;;;20.98;4.65;;;;;;;6.76;100.00;100088.34;5031497;28;20036;-59
2023/03/26 06:40:22;;;;;;;20.77;5.82;;;;;;;6.75;100.00;100092.78;5019096;28;20044;-58
2023/03/26 06:42:48;;;;;;;21.90;5.07;;;;;;;6.77;100.00;100085.56;5028029;28;20033;-58
2023/03/26 06:45:13;;;;;;;20.60;4.95;;;;;;;6.76;100.00;100089.16;5025057;28;20053;-58
2023/03/26 06:47:38;;;;;;;23.75;5.05;;;;;;;6.76;100.00;100088.34;5032833;28;20044;-57
2023/03/26 06:50:05;;;;;;;22.20;4.53;;;;;;;6.74;100.00;100091.13;5030050;28;20045;-57
2023/03/26 06:52:30;;;;;;;23.88;5.15;;;;;;;6.76;100.00;100088.34;5030313;28;20065;-59
2023/03/26 06:54:56;;;;;;;22.38;4.63;;;;;;;6.73;100.00;100084.22;5019488;28;20057;-58
2023/03/26 06:57:21;;;;;;;24.67;5.20;;;;;;;6.75;100.00;100091.97;5025963;28;20029;-59
2023/03/26 06:59:47;;;;;;;23.10;4.70;;;;;;;6.74;100.00;100091.13;5027878;28;20129;-60
2023/03/26 07:02:12;;;;;;;19.27;4.70;;;;;;;6.77;100.00;100085.56;5027558;28;20354;-59
2023/03/26 07:04:38;;;;;;;17.20;4.68;;;;;;;6.76;100.00;100086.50;5033911;28;20055;-59
2023/03/26 07:07:03;;;;;;;22.45;4.60;;;;;;;6.77;100.00;100092.63;5023284;28;20561;-59
2023/03/26 07:09:29;;;;;;;18.13;4.53;;;;;;;6.75;100.00;100084.06;5027773;28;20109;-60
2023/03/26 07:11:56;;;;;;;20.77;4.80;;;;;;;6.73;100.00;100084.22;5019131;28;20567;-58
2023/03/26 07:14:23;;;;;;;19.95;4.93;;;;;;;6.72;100.00;100087.81;5016947;28;20484;-58
2023/03/26 07:16:49;;;;;;;18.27;4.70;;;;;;;6.71;100.00;100076.44;5026365;28;20033;-58
2023/03/26 07:19:14;;;;;;;18.58;4.55;;;;;;;6.73;100.00;100073.66;5022572;28;20034;-58
2023/03/26 07:21:40;;;;;;;17.08;4.45;;;;;;;6.75;100.00;100076.97;5022349;28;20040;-58
2023/03/26 07:24:09;;;;;;;22.58;5.03;;;;;;;6.72;100.00;100074.66;5020439;28;20388;-59
2023/03/26 07:26:47;;;;;;;22.15;5.25;;;;;;;6.75;100.00;100074.31;5023993;28;20083;-58
2023/03/26 07:29:23;;;;;;;19.88;4.75;;;;;;;6.75;100.00;100065.63;5021790;28;20144;-58
2023/03/26 07:32:08;;;;;;;20.50;4.90;;;;;;;6.77;100.00;100064.47;5026395;28;20063;-58
2023/03/26 07:35:03;;;;;;;20.55;5.25;;;;;;;6.76;100.00;100067.25;5021119;28;20033;-58
2023/03/26 07:37:39;;;;;;;17.40;4.80;;;;;;;6.79;100.00;100056.41;5022127;28;20029;-58
2023/03/26 07:40:36;;;;;;;16.65;4.68;;;;;;;6.81;100.00;100055.25;5021392;28;20045;-58
2023/03/26 07:43:13;;;;;;;17.85;5.38;;;;;;;6.83;100.00;100058.59;5020800;28;20152;-59
2023/03/26 07:45:41;;;;;;;18.98;5.82;;;;;;;6.80;100.00;100058.88;5023288;28;20033;-59
2023/03/26 07:48:30;;;;;;;18.50;5.65;;;;;;;6.84;100.00;100059.38;5025843;28;20080;-58
2023/03/26 07:50:56;;;;;;;22.17;5.35;;;;;;;6.83;100.00;100053.31;5020169;28;20108;-58
2023/03/26 07:53:22;;;;;;;19.52;5.38;;;;;;;6.81;100.00;100049.19;5019323;28;20114;-58
2023/03/26 07:56:16;;;;;;;17.98;5.40;;;;;;;6.81;100.00;100050.00;5021971;28;20041;-59
2023/03/26 07:58:41;;;;;;;19.60;5.88;;;;;;;6.84;100.00;100052.31;5020140;28;20041;-58
2023/03/26 08:02:01;;;;;;;19.98;5.80;;;;;;;6.88;100.00;100050.19;5021049;28;20018;-58
2023/03/26 08:04:46;;;;;;;18.77;6.25;;;;;;;6.88;100.00;100049.38;5017672;28;20037;-58
2023/03/26 08:07:41;;;;;;;16.88;5.05;;;;;;;6.89;100.00;100051.00;5022307;28;20035;-58
2023/03/26 08:10:29;;;;;;;17.17;5.05;;;;;;;6.88;100.00;100044.09;5022455;28;20933;-58
2023/03/26 08:13:33;;;;;;;16.25;5.10;;;;;;;6.91;100.00;100039.31;5021485;28;20037;-58
2023/03/26 08:16:18;;;;;;;20.77;5.20;;;;;;;6.94;100.00;100040.81;5015133;28;20037;-58
2023/03/26 08:19:09;;;;;;;18.25;5.13;;;;;;;6.96;100.00;100037.06;5017591;28;20030;-58
2023/03/26 08:21:43;;;;;;;17.35;4.97;;;;;;;6.97;100.00;100040.53;5022991;28;20025;-58
2023/03/26 08:24:17;;;;;;;17.90;5.32;;;;;;;7.01;100.00;100044.50;5020729;28;20369;-58
2023/03/26 08:26:56;;;;;;;19.40;5.65;;;;;;;7.01;100.00;100041.88;5020386;28;20718;-58
2023/03/26 08:29:48;;;;;;;17.95;5.30;;;;;;;7.03;100.00;100039.06;5020253;28;20029;-59
2023/03/26 08:32:16;;;;;;;21.20;5.15;;;;;;;6.99;100.00;100031.47;5019701;28;20033;-58
2023/03/26 08:34:41;;;;;;;23.52;5.25;;;;;;;7.03;100.00;100029.34;5024532;28;20035;-58
2023/03/26 08:37:08;;;;;;;16.45;4.97;;;;;;;7.02;100.00;100034.78;5017031;28;20109;-58
2023/03/26 08:39:35;;;;;;;19.05;5.20;;;;;;;7.01;100.00;100036.59;5023441;28;20021;-58
2023/03/26 08:42:28;;;;;;;15.68;4.90;;;;;;;7.04;100.00;100033.63;5028903;28;20116;-59
2023/03/26 08:45:12;;;;;;;18.60;5.40;;;;;;;7.05;100.00;100039.75;5026188;28;20033;-58
2023/03/26 08:48:11;;;;;;;18.17;5.13;;;;;;;7.09;100.00;100036.63;5023752;28;20045;-58
2023/03/26 08:51:13;;;;;;;22.13;6.68;;;;;;;7.12;100.00;100020.47;5031787;28;20041;-58
2023/03/26 08:54:15;;;;;;;19.67;6.72;;;;;;;7.16;100.00;100028.91;5030232;28;20172;-59
2023/03/26 08:56:59;;;;;;;20.67;7.53;;;;;;;7.22;100.00;100035.34;5025882;28;20030;-58
2023/03/26 08:59:38;;;;;;;19.77;6.80;;;;;;;7.20;100.00;100026.78;5027433;28;20030;-58
2023/03/26 09:02:36;;;;;;;18.40;5.80;;;;;;;7.26;100.00;100026.16;5021980;28;20116;-58
2023/03/26 09:05:23;;;;;;;18.75;4.97;;;;;;;7.28;100.00;100026.81;5032574;28;20028;-59
2023/03/26 09:08:07;;;;;;;17.50;4.70;;;;;;;7.30;100.00;100022.19;5019697;28;20079;-58
2023/03/26 09:10:59;;;;;;;14.93;4.22;;;;;;;7.29;100.00;100017.91;5031893;28;20080;-59
2023/03/26 09:13:41;;;;;;;14.02;4.32;;;;;;;7.30;100.00;100022.19;5025662;28;20037;-58
2023/03/26 09:16:22;;;;;;;14.65;4.40;;;;;;;7.35;100.00;100024.38;5030352;28;20061;-58
2023/03/26 09:19:10;;;;;;;18.30;4.80;;;;;;;7.33;100.00;100021.88;5033285;28;20053;-59
2023/03/26 09:21:49;;;;;;;19.13;4.88;;;;;;;7.32;100.00;100020.22;5029273;28;20045;-58
2023/03/26 09:24:37;;;;;;;16.15;4.40;;;;;;;7.33;100.00;100021.88;5038137;28;20581;-58
2023/03/26 09:27:16;;;;;;;16.33;4.85;;;;;;;7.34;100.00;100020.88;5033291;28;20393;-58
2023/03/26 09:29:45;;;;;;;18.83;4.80;;;;;;;7.35;100.00;100019.09;5040379;28;20033;-58
2023/03/26 09:32:19;;;;;;;18.70;4.65;;;;;;;7.36;100.00;100021.53;5025493;28;20041;-58
2023/03/26 09:35:06;;;;;;;19.17;4.78;;;;;;;7.38;100.00;100019.59;5031886;28;20086;-58
2023/03/26 09:37:56;;;;;;;15.23;4.80;;;;;;;7.36;100.00;100024.19;5034839;28;20076;-57
2023/03/26 09:40:42;;;;;;;18.65;4.72;;;;;;;7.44;100.00;100017.31;5025791;28;20041;-59
2023/03/26 09:43:17;;;;;;;16.95;4.18;;;;;;;7.44;100.00;100022.56;5042012;28;20041;-59
2023/03/26 09:46:02;;;;;;;16.73;4.03;;;;;;;7.46;100.00;100015.31;5032535;28;20033;-59
2023/03/26 09:48:30;;;;;;;14.15;4.18;;;;;;;7.40;100.00;100022.88;5035083;28;20053;-58
2023/03/26 09:51:13;;;;;;;14.10;3.65;;;;;;;7.34;100.00;100012.97;5033249;28;20051;-58
2023/03/26 09:54:00;;;;;;;12.48;3.58;;;;;;;7.35;100.00;100019.91;5038902;28;20034;-58
2023/03/26 09:56:52;;;;;;;10.70;2.97;;;;;;;7.39;100.00;100015.97;5039298;28;20361;-58
2023/03/26 09:59:36;;;;;;;10.07;3.42;;;;;;;7.37;100.00;100025.84;5031454;28;20041;-58
2023/03/26 10:02:43;;;;;;;10.50;3.47;;;;;;;7.39;100.00;100029.16;5020247;28;20641;-58
2023/03/26 10:05:41;;;;;;;14.57;3.35;;;;;;;7.36;100.00;100026.81;5018464;28;20052;-59
2023/03/26 10:08:22;;;;;;;9.27;3.00;;;;;;;7.36;100.00;100032.09;4990854;28;20053;-59
2023/03/26 10:11:01;;;;;;;11.38;3.30;;;;;;;7.36;100.00;100026.81;5021996;28;20428;-58
2023/03/26 10:13:35;;;;;;;13.38;3.70;;;;;;;7.37;100.00;100032.94;5027494;28;20038;-58
2023/03/26 10:16:21;;;;;;;9.77;3.60;;;;;;;7.36;100.00;100031.28;5025341;28;20025;-58
2023/03/26 10:19:09;;;;;;;9.38;3.20;;;;;;;7.27;100.00;100033.06;5027333;28;20052;-58
2023/03/26 10:22:03;;;;;;;10.85;3.20;;;;;;;7.26;100.00;100036.69;5031862;28;20045;-59
2023/03/26 10:24:36;;;;;;;9.88;3.80;;;;;;;7.20;100.00;100016.25;5024955;28;20055;-59
2023/03/26 10:27:01;;;;;;;;;;;;;;;7.33;100.00;100027.16;5033765;28;20025;-58
2023/03/26 10:29:53;;;;;;;8.58;3.24;;;;;;;7.34;100.00;100028.78;5030339;28;19913;-58
2023/03/26 10:32:33;;;;;;;10.30;3.50;;;;;;;7.34;100.00;100039.34;5025995;28;20053;-57
2023/03/26 10:35:25;;;;;;;13.68;4.80;;;;;;;7.39;100.00;100036.22;5027742;28;20099;-57
2023/03/26 10:38:03;;;;;;;15.25;5.57;;;;;;;7.41;100.00;100039.53;5020431;28;20037;-57
2023/03/26 10:40:29;;;;;;;10.35;4.00;;;;;;;7.37;100.00;100039.03;5035646;28;20116;-57
2023/03/26 10:43:19;;;;;;;8.20;3.50;;;;;;;7.40;100.00;100040.50;5028286;28;20120;-57
2023/03/26 10:46:03;;;;;;;9.57;3.20;;;;;;;7.34;100.00;100039.34;5031003;28;20022;-57
2023/03/26 10:49:06;;;;;;;6.30;2.60;;;;;;;7.32;100.00;100046.59;5024199;28;20054;-57
2023/03/26 10:51:41;;;;;;;6.20;2.20;;;;;;;7.25;100.00;100038.50;5024788;28;20489;-58
2023/03/26 10:54:20;;;;;;;8.40;2.50;;;;;;;7.31;100.00;100044.97;5026868;28;20111;-59
2023/03/26 10:56:49;;;;;;;9.60;2.95;;;;;;;7.29;100.00;100046.09;5038783;28;20053;-58
2023/03/26 10:59:16;;;;;;;5.95;2.85;;;;;;;7.35;100.00;100054.19;5021256;28;20040;-58
2023/03/26 11:02:00;;;;;;;6.57;3.10;;;;;;;7.37;100.00;100046.97;5017929;28;20029;-58
2023/03/26 11:04:46;;;;;;;6.55;3.15;;;;;;;7.44;100.00;100054.22;5029607;28;20059;-58
2023/03/26 11:07:32;;;;;;;8.45;2.92;;;;;;;7.43;100.00;100055.19;5031570;28;20040;-58
2023/03/26 11:10:16;;;;;;;6.32;2.60;;;;;;;7.43;100.00;100049.91;5023139;28;20141;-59
2023/03/26 11:13:08;;;;;;;8.25;2.60;;;;;;;7.51;100.00;100055.22;5025522;28;20409;-58
2023/03/26 11:15:58;;;;;;;5.43;2.70;;;;;;;7.47;100.00;100043.34;5017786;28;20057;-58
2023/03/26 11:18:32;;;;;;;5.65;2.40;;;;;;;7.53;100.00;100055.88;5022809;28;20029;-58
2023/03/26 11:21:20;;;;;;;5.38;2.30;;;;;;;7.57;100.00;100061.66;5027492;28;20037;-58
2023/03/26 11:24:06;;;;;;;5.00;2.20;;;;;;;7.57;100.00;100061.66;5033329;28;20032;-59
2023/03/26 11:26:42;;;;;;;4.18;2.05;;;;;;;7.59;100.00;100063.16;5026709;28;20025;-58
2023/03/26 11:29:13;;;;;;;6.82;2.40;;;;;;;7.63;100.00;100069.78;5025131;28;20044;-59
2023/03/26 11:32:11;;;;;;;5.22;2.28;;;;;;;7.71;100.00;100068.13;5043639;28;20025;-58
2023/03/26 11:34:42;;;;;;;6.00;2.30;;;;;;;7.60;100.00;100067.44;5038904;28;20040;-58
2023/03/26 11:37:15;;;;;;;6.03;2.10;;;;;;;7.69;100.00;100070.13;5033711;28;20095;-58
2023/03/26 11:39:53;;;;;;;5.25;2.30;;;;;;;7.72;100.00;100072.41;5022974;28;20393;-58
2023/03/26 11:42:22;;;;;;;6.22;2.35;;;;;;;7.60;100.00;100078.00;5033521;28;20406;-58
2023/03/26 11:44:56;;;;;;;5.07;2.22;;;;;;;7.61;100.00;100071.72;5027857;28;20029;-58
2023/03/26 11:47:30;;;;;;;7.13;2.50;;;;;;;7.65;100.00;100078.34;5024401;28;20060;-58